createdAt,value
2019-02-25T00:02:42.110Z,3.30
2019-02-25T00:07:46.272Z,2.97
2019-02-25T00:12:50.444Z,2.97
2019-02-25T00:17:54.601Z,3.37
2019-02-25T00:22:58.763Z,2.90
2019-02-25T00:28:03.920Z,3.30
2019-02-25T00:33:08.219Z,3.03
2019-02-25T00:38:12.382Z,3.13
2019-02-25T00:43:17.639Z,2.73
2019-02-25T00:48:21.807Z,2.90
2019-02-25T00:53:27.064Z,3.30
2019-02-25T00:58:31.315Z,3.00
2019-02-25T01:03:36.827Z,2.97
2019-02-25T01:08:41.002Z,3.37
2019-02-25T01:13:46.618Z,3.40
2019-02-25T01:18:50.793Z,3.30
2019-02-25T01:23:55.049Z,3.77
2019-02-25T01:28:59.206Z,3.13
2019-02-25T01:34:04.472Z,3.67
2019-02-25T01:39:08.911Z,3.37
2019-02-25T01:44:14.677Z,2.80
2019-02-25T01:49:18.837Z,3.37
2019-02-25T01:54:24.689Z,2.93
2019-02-25T01:59:28.853Z,2.90
2019-02-25T02:04:34.290Z,3.17
2019-02-25T02:09:38.453Z,3.40
2019-02-25T02:14:43.758Z,3.63
2019-02-25T02:19:47.922Z,3.70
2019-02-25T02:24:52.114Z,3.30
2019-02-25T02:29:56.315Z,3.60
2019-02-25T02:35:01.901Z,3.53
2019-02-25T02:40:06.221Z,3.77
2019-02-25T02:45:28.381Z,4.07
2019-02-25T02:50:32.572Z,3.83
2019-02-25T02:55:38.423Z,3.50
2019-02-25T03:00:42.594Z,3.97
2019-02-25T03:05:48.339Z,3.70
2019-02-25T03:10:52.495Z,3.33
2019-02-25T03:15:57.932Z,3.67
2019-02-25T03:21:02.093Z,3.53
2019-02-25T03:26:07.043Z,2.90
2019-02-25T03:31:11.195Z,3.20
2019-02-25T03:36:16.718Z,3.40
2019-02-25T03:41:20.875Z,3.33
2019-02-25T03:46:26.705Z,3.43
2019-02-25T03:51:30.878Z,3.73
2019-02-25T03:56:36.509Z,3.63
2019-02-25T04:01:40.694Z,3.30
2019-02-25T04:06:46.011Z,3.03
2019-02-25T04:11:50.189Z,3.53
2019-02-25T04:16:55.584Z,3.03
2019-02-25T04:21:59.764Z,3.50
2019-02-25T04:27:04.187Z,3.47
2019-02-25T04:32:08.457Z,4.20
2019-02-25T04:37:13.862Z,4.27
2019-02-25T04:42:18.101Z,3.97
2019-02-25T04:47:23.507Z,4.13
2019-02-25T04:52:27.780Z,4.23
2019-02-25T04:57:33.245Z,3.87
2019-02-25T05:02:37.414Z,4.20
2019-02-25T05:07:42.843Z,4.00
2019-02-25T05:13:00.915Z,2.87
2019-02-25T05:18:06.794Z,3.53
2019-02-25T05:23:11.005Z,3.27
2019-02-25T05:28:16.564Z,4.63
2019-02-25T05:33:20.764Z,3.90
2019-02-25T05:38:26.070Z,3.90
2019-02-25T05:43:30.247Z,3.93
2019-02-25T05:48:36.599Z,3.37
2019-02-25T05:53:40.780Z,3.93
2019-02-25T05:58:46.586Z,3.70
2019-02-25T06:03:50.777Z,3.87
2019-02-25T06:08:56.590Z,3.43
2019-02-25T06:14:02.398Z,4.33
2019-02-25T06:19:07.748Z,3.70
2019-02-25T06:24:12.061Z,4.00
2019-02-25T06:29:17.536Z,3.73
2019-02-25T06:34:21.695Z,3.27
2019-02-25T06:39:27.420Z,3.60
2019-02-25T06:44:31.627Z,4.17
2019-02-25T06:49:37.002Z,4.00
2019-02-25T06:54:41.218Z,3.97
2019-02-25T06:59:46.502Z,4.27
2019-02-25T07:04:56.814Z,4.23
2019-02-25T07:10:14.364Z,4.23
2019-02-25T07:15:37.700Z,3.27
2019-02-25T07:20:58.774Z,3.93
2019-02-25T07:26:09.578Z,4.30
2019-02-25T07:31:36.643Z,4.33
2019-02-25T07:36:55.720Z,3.73
2019-02-25T07:42:18.433Z,4.13
2019-02-25T07:47:40.339Z,4.50
2019-02-25T07:53:09.471Z,4.60
2019-02-25T07:58:34.085Z,5.77
2019-02-25T08:03:56.000Z,5.27
2019-02-25T08:09:25.355Z,5.37
2019-02-25T08:14:47.592Z,5.60
2019-02-25T08:20:09.676Z,7.87
2019-02-25T08:25:52.071Z,8.30
2019-02-25T08:31:09.802Z,8.17
2019-02-25T08:36:45.630Z,6.37
2019-02-25T08:42:15.713Z,6.13
2019-02-25T08:47:39.327Z,5.60
2019-02-25T08:52:43.524Z,7.00
2019-02-25T08:57:47.701Z,6.95
2019-02-25T09:02:51.901Z,6.22
2019-02-25T09:07:56.081Z,6.20
2019-02-25T09:13:00.266Z,5.22
2019-02-25T09:18:04.140Z,8.60
2019-02-25T09:23:08.587Z,7.87
2019-02-25T09:28:13.041Z,6.67
2019-02-25T09:33:17.523Z,5.97
2019-02-25T09:38:23.596Z,5.10
2019-02-25T09:43:28.291Z,5.13
2019-02-25T09:48:32.753Z,8.13
2019-02-25T09:53:37.197Z,5.63
2019-02-25T09:58:41.641Z,5.70
2019-02-25T10:03:46.104Z,5.87
2019-02-25T10:08:50.539Z,4.83
2019-02-25T10:13:54.974Z,6.20
2019-02-25T10:18:59.439Z,6.20
2019-02-25T10:24:03.895Z,7.33
2019-02-25T10:29:08.406Z,6.20
2019-02-25T10:34:12.864Z,6.07
2019-02-25T10:39:17.858Z,5.13
2019-02-25T10:44:23.437Z,4.83
2019-02-25T10:49:29.414Z,4.70
2019-02-25T10:54:34.119Z,4.47
2019-02-25T10:59:41.493Z,4.30
2019-02-25T11:04:47.462Z,6.00
2019-02-25T11:10:12.021Z,4.53
2019-02-25T11:15:17.328Z,4.13
2019-02-25T11:20:23.109Z,4.37
2019-02-25T11:25:28.489Z,3.40
2019-02-25T11:30:35.074Z,3.47
2019-02-25T11:35:41.094Z,3.80
2019-02-25T11:40:47.036Z,3.87
2019-02-25T11:45:51.508Z,3.87
2019-02-25T11:50:57.479Z,3.87
2019-02-25T11:56:01.936Z,3.70
2019-02-25T12:01:07.773Z,3.20
2019-02-25T12:06:12.320Z,3.30
2019-02-25T12:11:18.282Z,3.10
2019-02-25T12:16:22.725Z,3.30
2019-02-25T12:21:28.489Z,3.40
2019-02-25T12:26:32.948Z,3.03
2019-02-25T12:31:37.926Z,3.07
2019-02-25T12:36:42.385Z,2.40
2019-02-25T12:41:48.283Z,2.77
2019-02-25T12:46:52.826Z,3.23
2019-02-25T12:51:58.491Z,2.67
2019-02-25T12:57:04.670Z,2.97
2019-02-25T13:02:10.309Z,3.17
2019-02-25T13:07:14.820Z,2.83
2019-02-25T13:12:23.473Z,2.87
2019-02-25T13:17:27.978Z,2.33
2019-02-25T13:22:32.826Z,2.10
2019-02-25T13:27:37.304Z,2.03
2019-02-25T13:32:43.023Z,1.90
2019-02-25T13:37:49.035Z,2.20
2019-02-25T13:42:55.094Z,4.53
2019-02-25T13:47:59.625Z,2.20
2019-02-25T13:53:04.330Z,2.13
2019-02-25T13:58:08.867Z,1.77
2019-02-25T14:03:14.108Z,2.10
2019-02-25T14:08:18.662Z,2.07
2019-02-25T14:13:24.075Z,4.20
2019-02-25T14:18:28.623Z,4.27
2019-02-25T14:23:33.561Z,2.80
2019-02-25T14:28:38.096Z,3.13
2019-02-25T14:33:43.479Z,3.23
2019-02-25T14:38:48.023Z,5.70
2019-02-25T14:43:54.210Z,4.20
2019-02-25T14:48:59.239Z,3.93
2019-02-25T14:54:04.273Z,2.17
2019-02-25T14:59:14.542Z,2.53
2019-02-25T15:04:16.262Z,2.40
2019-02-25T15:09:20.804Z,2.10
2019-02-25T15:14:25.954Z,1.80
2019-02-25T15:19:32.525Z,2.00
2019-02-25T15:24:36.982Z,1.27
2019-02-25T15:29:42.349Z,1.83
2019-02-25T15:34:48.584Z,1.97
2019-02-25T15:39:55.913Z,1.50
2019-02-25T15:45:01.611Z,1.80
2019-02-25T15:50:07.965Z,1.73
2019-02-25T15:55:16.817Z,1.97
2019-02-25T16:00:23.260Z,1.80
2019-02-25T16:05:29.709Z,2.17
2019-02-25T16:10:35.310Z,1.80
2019-02-25T16:15:43.294Z,2.60
2019-02-25T16:20:47.878Z,2.10
2019-02-25T16:25:54.829Z,2.00
2019-02-25T16:31:00.041Z,2.10
2019-02-25T16:36:06.184Z,1.60
2019-02-25T16:41:12.142Z,2.53
2019-02-25T16:46:20.177Z,2.43
2019-02-25T16:51:25.741Z,2.43
2019-02-25T16:56:31.601Z,2.13
2019-02-25T17:01:37.533Z,2.33
2019-02-25T17:06:46.374Z,2.50
2019-02-25T17:11:51.199Z,2.07
2019-02-25T17:16:57.411Z,2.07
2019-02-25T17:22:05.125Z,1.50
2019-02-25T17:27:11.803Z,1.77
2019-02-25T17:32:21.141Z,1.30
2019-02-25T17:37:26.763Z,1.52
2019-02-25T17:42:33.489Z,1.47
2019-02-25T17:47:41.865Z,1.70
2019-02-25T17:52:45.153Z,1.20
2019-02-25T17:57:52.063Z,1.27
2019-02-25T18:02:59.203Z,1.10
2019-02-25T18:08:05.311Z,1.30
2019-02-25T18:13:10.885Z,1.32
2019-02-25T18:18:17.803Z,1.20
2019-02-25T18:23:22.428Z,1.40
2019-02-25T18:28:28.907Z,1.30
2019-02-25T18:33:33.897Z,1.37
2019-02-25T18:38:39.049Z,1.72
2019-02-25T18:43:45.096Z,1.80
2019-02-25T18:48:51.321Z,1.20
2019-02-25T18:53:59.155Z,1.33
2019-02-25T18:59:09.587Z,1.10
2019-02-25T19:04:11.130Z,1.37
2019-02-25T19:09:18.249Z,1.40
2019-02-25T19:14:24.176Z,1.40
2019-02-25T19:19:33.801Z,1.50
2019-02-25T19:24:40.385Z,1.57
2019-02-25T19:29:45.548Z,1.50
2019-02-25T19:34:53.688Z,1.67
2019-02-25T19:39:58.534Z,1.70
2019-02-25T19:45:11.225Z,1.77
2019-02-25T19:50:17.338Z,1.65
2019-02-25T19:55:23.442Z,1.70
2019-02-25T20:00:30.583Z,1.80
2019-02-25T20:05:38.686Z,2.10
2019-02-25T20:10:41.446Z,1.90
2019-02-25T20:15:46.783Z,2.00
2019-02-25T20:20:52.723Z,2.00
2019-02-25T20:25:57.836Z,2.00
2019-02-25T20:31:02.887Z,1.90
2019-02-25T20:36:07.416Z,1.80
2019-02-25T20:41:11.874Z,1.80
2019-02-25T20:46:19.918Z,2.07
2019-02-25T20:51:25.053Z,2.08
2019-02-25T20:56:31.118Z,2.90
2019-02-25T21:01:39.494Z,2.30
2019-02-25T21:06:44.070Z,2.17
2019-02-25T21:11:48.827Z,2.67
2019-02-25T21:16:54.334Z,2.23
2019-02-25T21:22:00.248Z,2.52
2019-02-25T21:27:08.593Z,2.73
2019-02-25T21:32:17.250Z,2.50
2019-02-25T21:37:21.362Z,2.45
2019-02-25T21:42:27.846Z,2.80
2019-02-25T21:47:33.464Z,2.40
2019-02-25T21:52:39.386Z,2.97
2019-02-25T21:57:44.562Z,2.27
2019-02-25T22:02:50.457Z,2.50
2019-02-25T22:07:57.126Z,2.37
2019-02-25T22:13:04.355Z,2.53
2019-02-25T22:18:08.638Z,2.60
2019-02-25T22:23:13.561Z,2.63
2019-02-25T22:28:17.739Z,2.63
2019-02-25T22:33:27.739Z,1.93
2019-02-25T22:38:29.207Z,2.77
2019-02-25T22:43:34.202Z,2.27
2019-02-25T22:48:40.423Z,2.60
2019-02-25T22:53:46.521Z,2.57
2019-02-25T22:58:50.689Z,2.70
2019-02-25T23:03:55.515Z,2.50
2019-02-25T23:09:00.825Z,2.60
2019-02-25T23:14:09.331Z,2.20
2019-02-25T23:19:14.098Z,2.03
2019-02-25T23:24:21.649Z,2.30
2019-02-25T23:29:27.933Z,2.57
2019-02-25T23:34:31.406Z,2.20
2019-02-25T23:39:36.231Z,2.30
2019-02-25T23:44:42.018Z,2.10
2019-02-25T23:49:46.939Z,2.20
2019-02-25T23:54:54.340Z,2.73
2019-02-25T23:59:58.689Z,2.30
